sensor_id;sensor_type;location;lat;lon;timestamp;P1;durP1;ratioP1;P2;durP2;ratioP2
15271;SDS011;7737;51.578;7.268;2023-04-25T00:02:15;12.27;;;5.70;;
15271;SDS011;7737;51.578;7.268;2023-04-25T00:04:41;12.85;;;5.30;;
15271;SDS011;7737;51.578;7.268;2023-04-25T00:07:08;11.15;;;5.60;;
15271;SDS011;7737;51.578;7.268;2023-04-25T00:09:35;13.88;;;5.50;;
15271;SDS011;7737;51.578;7.268;2023-04-25T00:12:03;11.52;;;5.78;;
15271;SDS011;7737;51.578;7.268;2023-04-25T00:14:30;12.70;;;5.30;;
15271;SDS011;7737;51.578;7.268;2023-04-25T00:16:59;12.75;;;5.68;;
15271;SDS011;7737;51.578;7.268;2023-04-25T00:19:25;11.05;;;5.63;;
15271;SDS011;7737;51.578;7.268;2023-04-25T00:21:53;9.95;;;4.93;;
15271;SDS011;7737;51.578;7.268;2023-04-25T00:24:20;11.75;;;5.70;;
15271;SDS011;7737;51.578;7.268;2023-04-25T00:26:46;10.60;;;5.53;;
15271;SDS011;7737;51.578;7.268;2023-04-25T00:29:15;13.93;;;6.10;;
15271;SDS011;7737;51.578;7.268;2023-04-25T00:31:41;12.23;;;5.45;;
15271;SDS011;7737;51.578;7.268;2023-04-25T00:34:08;16.35;;;5.82;;
15271;SDS011;7737;51.578;7.268;2023-04-25T00:36:34;11.63;;;5.45;;
15271;SDS011;7737;51.578;7.268;2023-04-25T00:39:01;7.63;;;4.90;;
15271;SDS011;7737;51.578;7.268;2023-04-25T00:41:29;9.10;;;5.18;;
15271;SDS011;7737;51.578;7.268;2023-04-25T00:43:56;8.27;;;5.40;;
15271;SDS011;7737;51.578;7.268;2023-04-25T00:46:25;8.88;;;5.10;;
15271;SDS011;7737;51.578;7.268;2023-04-25T00:48:51;8.95;;;4.93;;
15271;SDS011;7737;51.578;7.268;2023-04-25T00:51:19;10.05;;;5.05;;
15271;SDS011;7737;51.578;7.268;2023-04-25T00:53:47;8.00;;;4.78;;
15271;SDS011;7737;51.578;7.268;2023-04-25T00:56:15;12.07;;;5.50;;
15271;SDS011;7737;51.578;7.268;2023-04-25T00:58:42;6.70;;;4.78;;
15271;SDS011;7737;51.578;7.268;2023-04-25T01:01:09;8.95;;;4.90;;
15271;SDS011;7737;51.578;7.268;2023-04-25T01:03:39;8.60;;;5.03;;
15271;SDS011;7737;51.578;7.268;2023-04-25T01:06:07;9.40;;;5.20;;
15271;SDS011;7737;51.578;7.268;2023-04-25T01:08:35;9.13;;;4.83;;
15271;SDS011;7737;51.578;7.268;2023-04-25T01:11:03;9.23;;;4.47;;
15271;SDS011;7737;51.578;7.268;2023-04-25T01:13:30;9.30;;;4.68;;
15271;SDS011;7737;51.578;7.268;2023-04-25T01:15:57;9.63;;;5.00;;
15271;SDS011;7737;51.578;7.268;2023-04-25T01:18:23;10.63;;;5.40;;
15271;SDS011;7737;51.578;7.268;2023-04-25T01:20:52;11.82;;;4.47;;
15271;SDS011;7737;51.578;7.268;2023-04-25T01:23:21;10.05;;;4.60;;
15271;SDS011;7737;51.578;7.268;2023-04-25T01:25:48;9.05;;;4.68;;
15271;SDS011;7737;51.578;7.268;2023-04-25T01:28:15;12.55;;;4.82;;
15271;SDS011;7737;51.578;7.268;2023-04-25T01:30:42;12.43;;;5.05;;
15271;SDS011;7737;51.578;7.268;2023-04-25T01:33:09;7.32;;;5.28;;
15271;SDS011;7737;51.578;7.268;2023-04-25T01:35:36;8.02;;;5.13;;
15271;SDS011;7737;51.578;7.268;2023-04-25T01:38:02;6.38;;;4.40;;
15271;SDS011;7737;51.578;7.268;2023-04-25T01:40:30;9.77;;;4.97;;
15271;SDS011;7737;51.578;7.268;2023-04-25T01:42:59;8.18;;;4.63;;
15271;SDS011;7737;51.578;7.268;2023-04-25T01:45:26;12.75;;;4.60;;
15271;SDS011;7737;51.578;7.268;2023-04-25T01:47:52;7.60;;;4.18;;
15271;SDS011;7737;51.578;7.268;2023-04-25T01:50:19;7.55;;;4.63;;
15271;SDS011;7737;51.578;7.268;2023-04-25T01:52:45;8.35;;;4.35;;
15271;SDS011;7737;51.578;7.268;2023-04-25T01:55:12;7.47;;;3.85;;
15271;SDS011;7737;51.578;7.268;2023-04-25T01:57:40;8.65;;;4.20;;
15271;SDS011;7737;51.578;7.268;2023-04-25T02:00:07;6.45;;;4.22;;
15271;SDS011;7737;51.578;7.268;2023-04-25T02:02:35;13.27;;;4.82;;
15271;SDS011;7737;51.578;7.268;2023-04-25T02:05:02;8.27;;;4.72;;
15271;SDS011;7737;51.578;7.268;2023-04-25T02:07:28;11.07;;;4.60;;
15271;SDS011;7737;51.578;7.268;2023-04-25T02:09:55;7.22;;;4.63;;
15271;SDS011;7737;51.578;7.268;2023-04-25T02:12:21;10.70;;;5.63;;
15271;SDS011;7737;51.578;7.268;2023-04-25T02:14:49;10.23;;;5.45;;
15271;SDS011;7737;51.578;7.268;2023-04-25T02:17:16;7.88;;;5.45;;
15271;SDS011;7737;51.578;7.268;2023-04-25T02:19:42;10.25;;;6.22;;
15271;SDS011;7737;51.578;7.268;2023-04-25T02:22:09;9.43;;;6.60;;
15271;SDS011;7737;51.578;7.268;2023-04-25T02:24:36;10.70;;;6.53;;
15271;SDS011;7737;51.578;7.268;2023-04-25T02:27:03;11.30;;;6.50;;
15271;SDS011;7737;51.578;7.268;2023-04-25T02:29:29;11.77;;;7.57;;
15271;SDS011;7737;51.578;7.268;2023-04-25T02:31:57;15.35;;;7.55;;
15271;SDS011;7737;51.578;7.268;2023-04-25T02:34:24;13.55;;;8.07;;
15271;SDS011;7737;51.578;7.268;2023-04-25T02:36:50;11.25;;;7.22;;
15271;SDS011;7737;51.578;7.268;2023-04-25T02:39:17;13.55;;;7.75;;
15271;SDS011;7737;51.578;7.268;2023-04-25T02:41:44;13.32;;;8.20;;
15271;SDS011;7737;51.578;7.268;2023-04-25T02:44:10;15.38;;;7.85;;
15271;SDS011;7737;51.578;7.268;2023-04-25T02:46:37;12.77;;;8.55;;
15271;SDS011;7737;51.578;7.268;2023-04-25T02:49:05;11.02;;;7.38;;
15271;SDS011;7737;51.578;7.268;2023-04-25T02:51:31;13.68;;;7.57;;
15271;SDS011;7737;51.578;7.268;2023-04-25T02:53:58;13.68;;;7.88;;
15271;SDS011;7737;51.578;7.268;2023-04-25T02:56:25;11.65;;;7.85;;
15271;SDS011;7737;51.578;7.268;2023-04-25T02:58:52;14.32;;;7.70;;
15271;SDS011;7737;51.578;7.268;2023-04-25T03:01:18;17.00;;;7.80;;
15271;SDS011;7737;51.578;7.268;2023-04-25T03:03:45;14.98;;;7.30;;
15271;SDS011;7737;51.578;7.268;2023-04-25T03:06:13;12.93;;;6.82;;
15271;SDS011;7737;51.578;7.268;2023-04-25T03:08:39;12.93;;;6.50;;
15271;SDS011;7737;51.578;7.268;2023-04-25T03:11:06;9.85;;;6.10;;
15271;SDS011;7737;51.578;7.268;2023-04-25T03:13:32;12.93;;;6.18;;
15271;SDS011;7737;51.578;7.268;2023-04-25T03:15:59;12.27;;;5.53;;
15271;SDS011;7737;51.578;7.268;2023-04-25T03:18:26;15.20;;;5.78;;
15271;SDS011;7737;51.578;7.268;2023-04-25T03:20:52;13.05;;;6.00;;
15271;SDS011;7737;51.578;7.268;2023-04-25T03:23:20;13.65;;;6.05;;
15271;SDS011;7737;51.578;7.268;2023-04-25T03:25:47;10.38;;;5.90;;
15271;SDS011;7737;51.578;7.268;2023-04-25T03:28:14;11.32;;;5.40;;
15271;SDS011;7737;51.578;7.268;2023-04-25T03:30:40;9.18;;;4.72;;
15271;SDS011;7737;51.578;7.268;2023-04-25T03:33:07;13.27;;;5.40;;
15271;SDS011;7737;51.578;7.268;2023-04-25T03:35:33;12.13;;;5.50;;
15271;SDS011;7737;51.578;7.268;2023-04-25T03:38:00;15.05;;;5.60;;
15271;SDS011;7737;51.578;7.268;2023-04-25T03:40:28;12.93;;;5.20;;
15271;SDS011;7737;51.578;7.268;2023-04-25T03:42:54;12.98;;;5.60;;
15271;SDS011;7737;51.578;7.268;2023-04-25T03:45:21;12.88;;;5.05;;
15271;SDS011;7737;51.578;7.268;2023-04-25T03:47:48;10.02;;;4.03;;
15271;SDS011;7737;51.578;7.268;2023-04-25T03:50:14;8.07;;;3.72;;
15271;SDS011;7737;51.578;7.268;2023-04-25T03:52:41;7.55;;;3.40;;
15271;SDS011;7737;51.578;7.268;2023-04-25T03:55:08;6.40;;;3.20;;
15271;SDS011;7737;51.578;7.268;2023-04-25T03:57:37;7.43;;;3.50;;
15271;SDS011;7737;51.578;7.268;2023-04-25T04:00:04;6.65;;;3.25;;
15271;SDS011;7737;51.578;7.268;2023-04-25T04:02:31;5.07;;;2.97;;
15271;SDS011;7737;51.578;7.268;2023-04-25T04:04:59;5.20;;;2.75;;
15271;SDS011;7737;51.578;7.268;2023-04-25T04:07:26;6.25;;;3.00;;
15271;SDS011;7737;51.578;7.268;2023-04-25T04:09:53;6.25;;;2.58;;
15271;SDS011;7737;51.578;7.268;2023-04-25T04:12:19;6.22;;;2.75;;
15271;SDS011;7737;51.578;7.268;2023-04-25T04:14:47;6.78;;;2.80;;
15271;SDS011;7737;51.578;7.268;2023-04-25T04:17:13;7.00;;;2.85;;
15271;SDS011;7737;51.578;7.268;2023-04-25T04:19:40;8.07;;;2.97;;
15271;SDS011;7737;51.578;7.268;2023-04-25T04:22:07;9.18;;;3.20;;
15271;SDS011;7737;51.578;7.268;2023-04-25T04:24:34;10.02;;;3.28;;
15271;SDS011;7737;51.578;7.268;2023-04-25T04:27:00;10.77;;;3.42;;
15271;SDS011;7737;51.578;7.268;2023-04-25T04:29:27;6.40;;;2.93;;
15271;SDS011;7737;51.578;7.268;2023-04-25T04:31:55;8.27;;;3.60;;
15271;SDS011;7737;51.578;7.268;2023-04-25T04:34:21;8.00;;;3.08;;
15271;SDS011;7737;51.578;7.268;2023-04-25T04:36:49;8.15;;;3.40;;
15271;SDS011;7737;51.578;7.268;2023-04-25T04:39:16;12.00;;;3.95;;
15271;SDS011;7737;51.578;7.268;2023-04-25T04:41:42;9.48;;;3.58;;
15271;SDS011;7737;51.578;7.268;2023-04-25T04:44:09;10.07;;;3.90;;
15271;SDS011;7737;51.578;7.268;2023-04-25T04:46:36;7.43;;;3.17;;
15271;SDS011;7737;51.578;7.268;2023-04-25T04:49:08;11.00;;;3.60;;
15271;SDS011;7737;51.578;7.268;2023-04-25T04:51:35;9.30;;;3.23;;
15271;SDS011;7737;51.578;7.268;2023-04-25T04:54:02;9.35;;;3.90;;
15271;SDS011;7737;51.578;7.268;2023-04-25T04:56:29;10.65;;;3.95;;
15271;SDS011;7737;51.578;7.268;2023-04-25T04:58:56;13.48;;;4.10;;
15271;SDS011;7737;51.578;7.268;2023-04-25T05:01:23;11.93;;;4.55;;
15271;SDS011;7737;51.578;7.268;2023-04-25T05:03:50;10.18;;;3.67;;
15271;SDS011;7737;51.578;7.268;2023-04-25T05:06:18;10.57;;;3.67;;
15271;SDS011;7737;51.578;7.268;2023-04-25T05:08:45;10.13;;;4.22;;
15271;SDS011;7737;51.578;7.268;2023-04-25T05:11:12;10.88;;;3.85;;
15271;SDS011;7737;51.578;7.268;2023-04-25T05:13:39;12.50;;;4.03;;
15271;SDS011;7737;51.578;7.268;2023-04-25T05:16:05;10.93;;;3.97;;
15271;SDS011;7737;51.578;7.268;2023-04-25T05:18:32;12.13;;;4.20;;
15271;SDS011;7737;51.578;7.268;2023-04-25T05:20:59;13.63;;;4.10;;
15271;SDS011;7737;51.578;7.268;2023-04-25T05:23:27;10.27;;;4.20;;
15271;SDS011;7737;51.578;7.268;2023-04-25T05:25:55;11.57;;;3.90;;
15271;SDS011;7737;51.578;7.268;2023-04-25T05:28:21;9.02;;;4.30;;
15271;SDS011;7737;51.578;7.268;2023-04-25T05:30:48;8.40;;;4.70;;
15271;SDS011;7737;51.578;7.268;2023-04-25T05:33:15;8.93;;;4.50;;
15271;SDS011;7737;51.578;7.268;2023-04-25T05:35:42;12.70;;;4.82;;
15271;SDS011;7737;51.578;7.268;2023-04-25T05:38:08;15.10;;;5.57;;
15271;SDS011;7737;51.578;7.268;2023-04-25T05:40:37;12.57;;;5.47;;
15271;SDS011;7737;51.578;7.268;2023-04-25T05:43:03;11.57;;;5.63;;
15271;SDS011;7737;51.578;7.268;2023-04-25T05:45:30;11.97;;;5.40;;
15271;SDS011;7737;51.578;7.268;2023-04-25T05:47:56;12.88;;;4.95;;
15271;SDS011;7737;51.578;7.268;2023-04-25T05:50:23;12.57;;;5.28;;
15271;SDS011;7737;51.578;7.268;2023-04-25T05:52:50;13.50;;;5.13;;
15271;SDS011;7737;51.578;7.268;2023-04-25T05:55:16;14.32;;;5.25;;
15271;SDS011;7737;51.578;7.268;2023-04-25T05:57:45;16.00;;;6.05;;
15271;SDS011;7737;51.578;7.268;2023-04-25T06:00:12;14.75;;;6.10;;
15271;SDS011;7737;51.578;7.268;2023-04-25T06:02:40;14.40;;;5.10;;
15271;SDS011;7737;51.578;7.268;2023-04-25T06:05:08;17.02;;;6.10;;
15271;SDS011;7737;51.578;7.268;2023-04-25T06:07:35;14.30;;;6.13;;
15271;SDS011;7737;51.578;7.268;2023-04-25T06:10:01;17.13;;;5.88;;
15271;SDS011;7737;51.578;7.268;2023-04-25T06:12:31;16.55;;;5.80;;
15271;SDS011;7737;51.578;7.268;2023-04-25T06:14:59;13.68;;;5.60;;
15271;SDS011;7737;51.578;7.268;2023-04-25T06:17:25;12.88;;;5.68;;
15271;SDS011;7737;51.578;7.268;2023-04-25T06:19:52;18.23;;;6.40;;
15271;SDS011;7737;51.578;7.268;2023-04-25T06:22:19;15.07;;;6.07;;
15271;SDS011;7737;51.578;7.268;2023-04-25T06:24:45;14.40;;;6.28;;
15271;SDS011;7737;51.578;7.268;2023-04-25T06:27:12;13.60;;;5.82;;
15271;SDS011;7737;51.578;7.268;2023-04-25T06:29:38;18.13;;;5.75;;
15271;SDS011;7737;51.578;7.268;2023-04-25T06:32:06;13.98;;;5.47;;
15271;SDS011;7737;51.578;7.268;2023-04-25T06:34:33;20.30;;;6.22;;
15271;SDS011;7737;51.578;7.268;2023-04-25T06:36:59;12.60;;;5.43;;
15271;SDS011;7737;51.578;7.268;2023-04-25T06:39:26;12.55;;;5.40;;
15271;SDS011;7737;51.578;7.268;2023-04-25T06:41:53;13.60;;;5.03;;
15271;SDS011;7737;51.578;7.268;2023-04-25T06:44:19;12.88;;;5.32;;
15271;SDS011;7737;51.578;7.268;2023-04-25T06:46:48;13.80;;;5.10;;
15271;SDS011;7737;51.578;7.268;2023-04-25T06:49:16;13.02;;;5.28;;
15271;SDS011;7737;51.578;7.268;2023-04-25T06:51:42;12.40;;;4.90;;
15271;SDS011;7737;51.578;7.268;2023-04-25T06:54:09;15.77;;;5.15;;
15271;SDS011;7737;51.578;7.268;2023-04-25T06:56:36;15.63;;;4.80;;
15271;SDS011;7737;51.578;7.268;2023-04-25T06:59:02;16.13;;;4.95;;
15271;SDS011;7737;51.578;7.268;2023-04-25T07:01:29;12.27;;;4.07;;
15271;SDS011;7737;51.578;7.268;2023-04-25T07:03:56;17.00;;;4.75;;
15271;SDS011;7737;51.578;7.268;2023-04-25T07:06:23;15.55;;;4.30;;
15271;SDS011;7737;51.578;7.268;2023-04-25T07:08:51;13.07;;;4.40;;
15271;SDS011;7737;51.578;7.268;2023-04-25T07:11:18;11.95;;;4.10;;
15271;SDS011;7737;51.578;7.268;2023-04-25T07:13:45;12.52;;;4.05;;
15271;SDS011;7737;51.578;7.268;2023-04-25T07:16:11;11.38;;;4.55;;
15271;SDS011;7737;51.578;7.268;2023-04-25T07:18:38;12.55;;;4.57;;
15271;SDS011;7737;51.578;7.268;2023-04-25T07:21:04;12.95;;;3.90;;
15271;SDS011;7737;51.578;7.268;2023-04-25T07:23:32;12.68;;;4.15;;
15271;SDS011;7737;51.578;7.268;2023-04-25T07:25:59;12.25;;;3.53;;
15271;SDS011;7737;51.578;7.268;2023-04-25T07:28:25;14.27;;;3.83;;
15271;SDS011;7737;51.578;7.268;2023-04-25T07:30:52;8.90;;;3.60;;
15271;SDS011;7737;51.578;7.268;2023-04-25T07:33:18;11.45;;;4.10;;
15271;SDS011;7737;51.578;7.268;2023-04-25T07:35:46;10.63;;;3.80;;
15271;SDS011;7737;51.578;7.268;2023-04-25T07:38:12;15.82;;;3.83;;
15271;SDS011;7737;51.578;7.268;2023-04-25T07:40:40;12.80;;;4.32;;
15271;SDS011;7737;51.578;7.268;2023-04-25T07:43:07;11.48;;;4.15;;
15271;SDS011;7737;51.578;7.268;2023-04-25T07:45:33;13.85;;;4.13;;
15271;SDS011;7737;51.578;7.268;2023-04-25T07:48:00;12.30;;;3.70;;
15271;SDS011;7737;51.578;7.268;2023-04-25T07:50:28;14.80;;;4.18;;
15271;SDS011;7737;51.578;7.268;2023-04-25T07:52:54;11.02;;;3.15;;
15271;SDS011;7737;51.578;7.268;2023-04-25T07:55:21;10.65;;;3.70;;
15271;SDS011;7737;51.578;7.268;2023-04-25T07:57:48;12.00;;;3.25;;
15271;SDS011;7737;51.578;7.268;2023-04-25T08:00:15;11.15;;;3.28;;
15271;SDS011;7737;51.578;7.268;2023-04-25T08:02:42;13.07;;;3.28;;
15271;SDS011;7737;51.578;7.268;2023-04-25T08:05:09;13.15;;;3.55;;
15271;SDS011;7737;51.578;7.268;2023-04-25T08:07:39;10.30;;;3.33;;
15271;SDS011;7737;51.578;7.268;2023-04-25T08:10:06;6.28;;;3.10;;
15271;SDS011;7737;51.578;7.268;2023-04-25T08:12:33;11.55;;;3.53;;
15271;SDS011;7737;51.578;7.268;2023-04-25T08:15:03;10.20;;;2.88;;
15271;SDS011;7737;51.578;7.268;2023-04-25T08:17:31;12.75;;;2.80;;
15271;SDS011;7737;51.578;7.268;2023-04-25T08:19:57;12.95;;;2.90;;
15271;SDS011;7737;51.578;7.268;2023-04-25T08:22:24;12.00;;;3.22;;
15271;SDS011;7737;51.578;7.268;2023-04-25T08:24:50;11.45;;;3.17;;
15271;SDS011;7737;51.578;7.268;2023-04-25T08:27:17;10.70;;;3.25;;
15271;SDS011;7737;51.578;7.268;2023-04-25T08:29:45;10.07;;;3.10;;
15271;SDS011;7737;51.578;7.268;2023-04-25T08:32:13;9.18;;;3.22;;
15271;SDS011;7737;51.578;7.268;2023-04-25T08:34:40;9.52;;;3.13;;
15271;SDS011;7737;51.578;7.268;2023-04-25T08:37:08;10.32;;;3.17;;
15271;SDS011;7737;51.578;7.268;2023-04-25T08:39:34;9.38;;;2.92;;
15271;SDS011;7737;51.578;7.268;2023-04-25T08:42:01;7.60;;;2.80;;
15271;SDS011;7737;51.578;7.268;2023-04-25T08:44:31;8.60;;;2.90;;
15271;SDS011;7737;51.578;7.268;2023-04-25T08:46:59;8.32;;;2.75;;
15271;SDS011;7737;51.578;7.268;2023-04-25T08:49:29;10.05;;;2.65;;
15271;SDS011;7737;51.578;7.268;2023-04-25T08:51:57;8.30;;;2.95;;
15271;SDS011;7737;51.578;7.268;2023-04-25T08:54:26;11.02;;;3.00;;
15271;SDS011;7737;51.578;7.268;2023-04-25T08:56:55;10.93;;;2.47;;
15271;SDS011;7737;51.578;7.268;2023-04-25T08:59:23;8.75;;;2.50;;
15271;SDS011;7737;51.578;7.268;2023-04-25T09:01:50;7.72;;;2.25;;
15271;SDS011;7737;51.578;7.268;2023-04-25T09:04:17;17.35;;;3.63;;
15271;SDS011;7737;51.578;7.268;2023-04-25T09:06:45;5.32;;;1.80;;
15271;SDS011;7737;51.578;7.268;2023-04-25T09:09:11;12.13;;;2.20;;
15271;SDS011;7737;51.578;7.268;2023-04-25T09:11:38;9.88;;;2.63;;
15271;SDS011;7737;51.578;7.268;2023-04-25T09:14:12;4.93;;;2.00;;
15271;SDS011;7737;51.578;7.268;2023-04-25T09:16:58;8.30;;;1.90;;
15271;SDS011;7737;51.578;7.268;2023-04-25T09:19:27;9.27;;;2.30;;
15271;SDS011;7737;51.578;7.268;2023-04-25T09:21:56;7.50;;;1.92;;
15271;SDS011;7737;51.578;7.268;2023-04-25T09:24:30;8.10;;;2.10;;
15271;SDS011;7737;51.578;7.268;2023-04-25T09:26:58;11.02;;;2.67;;
15271;SDS011;7737;51.578;7.268;2023-04-25T09:29:30;6.88;;;2.55;;
15271;SDS011;7737;51.578;7.268;2023-04-25T09:32:10;9.38;;;2.20;;
15271;SDS011;7737;51.578;7.268;2023-04-25T09:34:39;9.93;;;2.22;;
15271;SDS011;7737;51.578;7.268;2023-04-25T09:37:08;7.20;;;1.75;;
15271;SDS011;7737;51.578;7.268;2023-04-25T09:39:35;5.47;;;1.80;;
15271;SDS011;7737;51.578;7.268;2023-04-25T09:42:02;6.75;;;1.70;;
15271;SDS011;7737;51.578;7.268;2023-04-25T09:44:29;4.50;;;1.45;;
15271;SDS011;7737;51.578;7.268;2023-04-25T09:46:56;6.68;;;1.45;;
15271;SDS011;7737;51.578;7.268;2023-04-25T09:49:24;6.22;;;1.48;;
15271;SDS011;7737;51.578;7.268;2023-04-25T09:51:55;4.97;;;1.70;;
15271;SDS011;7737;51.578;7.268;2023-04-25T09:54:24;6.32;;;1.60;;
15271;SDS011;7737;51.578;7.268;2023-04-25T09:56:51;6.20;;;2.15;;
15271;SDS011;7737;51.578;7.268;2023-04-25T09:59:19;8.27;;;1.73;;
15271;SDS011;7737;51.578;7.268;2023-04-25T10:01:48;6.97;;;1.80;;
15271;SDS011;7737;51.578;7.268;2023-04-25T10:04:17;4.00;;;1.48;;
15271;SDS011;7737;51.578;7.268;2023-04-25T10:06:45;5.63;;;1.30;;
15271;SDS011;7737;51.578;7.268;2023-04-25T10:09:15;4.80;;;1.17;;
15271;SDS011;7737;51.578;7.268;2023-04-25T10:11:45;6.18;;;1.60;;
15271;SDS011;7737;51.578;7.268;2023-04-25T10:14:12;4.50;;;1.17;;
15271;SDS011;7737;51.578;7.268;2023-04-25T10:16:40;7.53;;;1.50;;
15271;SDS011;7737;51.578;7.268;2023-04-25T10:19:07;5.80;;;1.40;;
15271;SDS011;7737;51.578;7.268;2023-04-25T10:21:35;5.28;;;1.55;;
15271;SDS011;7737;51.578;7.268;2023-04-25T10:24:06;4.05;;;1.20;;
15271;SDS011;7737;51.578;7.268;2023-04-25T10:26:34;3.85;;;1.05;;
15271;SDS011;7737;51.578;7.268;2023-04-25T10:29:02;3.78;;;1.25;;
15271;SDS011;7737;51.578;7.268;2023-04-25T10:31:30;4.35;;;1.25;;
15271;SDS011;7737;51.578;7.268;2023-04-25T10:33:56;6.10;;;1.45;;
15271;SDS011;7737;51.578;7.268;2023-04-25T10:36:24;4.13;;;1.20;;
15271;SDS011;7737;51.578;7.268;2023-04-25T10:38:52;6.88;;;1.35;;
15271;SDS011;7737;51.578;7.268;2023-04-25T10:41:19;4.97;;;1.35;;
15271;SDS011;7737;51.578;7.268;2023-04-25T10:43:48;5.85;;;1.60;;
15271;SDS011;7737;51.578;7.268;2023-04-25T10:46:21;4.97;;;1.50;;
15271;SDS011;7737;51.578;7.268;2023-04-25T10:48:49;6.40;;;1.52;;
15271;SDS011;7737;51.578;7.268;2023-04-25T10:51:18;5.15;;;1.50;;
15271;SDS011;7737;51.578;7.268;2023-04-25T10:53:46;5.03;;;1.20;;
15271;SDS011;7737;51.578;7.268;2023-04-25T10:56:16;4.13;;;1.38;;
15271;SDS011;7737;51.578;7.268;2023-04-25T10:58:43;5.93;;;1.63;;
15271;SDS011;7737;51.578;7.268;2023-04-25T11:01:11;5.57;;;1.50;;
15271;SDS011;7737;51.578;7.268;2023-04-25T11:03:41;5.47;;;1.42;;
15271;SDS011;7737;51.578;7.268;2023-04-25T11:06:11;6.65;;;1.65;;
15271;SDS011;7737;51.578;7.268;2023-04-25T11:08:47;5.28;;;1.48;;
15271;SDS011;7737;51.578;7.268;2023-04-25T11:11:15;6.13;;;1.85;;
15271;SDS011;7737;51.578;7.268;2023-04-25T11:13:42;6.60;;;1.70;;
15271;SDS011;7737;51.578;7.268;2023-04-25T11:16:09;4.90;;;1.50;;
15271;SDS011;7737;51.578;7.268;2023-04-25T11:18:35;6.00;;;1.50;;
15271;SDS011;7737;51.578;7.268;2023-04-25T11:21:04;4.90;;;1.58;;
15271;SDS011;7737;51.578;7.268;2023-04-25T11:23:32;6.88;;;1.92;;
15271;SDS011;7737;51.578;7.268;2023-04-25T11:25:58;4.80;;;1.67;;
15271;SDS011;7737;51.578;7.268;2023-04-25T11:28:26;4.22;;;1.50;;
15271;SDS011;7737;51.578;7.268;2023-04-25T11:30:53;7.63;;;1.25;;
15271;SDS011;7737;51.578;7.268;2023-04-25T11:33:22;6.22;;;1.35;;
15271;SDS011;7737;51.578;7.268;2023-04-25T11:35:49;5.03;;;1.20;;
15271;SDS011;7737;51.578;7.268;2023-04-25T11:38:17;5.85;;;1.45;;
15271;SDS011;7737;51.578;7.268;2023-04-25T11:40:44;4.30;;;1.20;;
15271;SDS011;7737;51.578;7.268;2023-04-25T11:43:15;4.60;;;1.02;;
15271;SDS011;7737;51.578;7.268;2023-04-25T11:45:42;2.78;;;1.00;;
15271;SDS011;7737;51.578;7.268;2023-04-25T11:48:12;5.82;;;1.40;;
15271;SDS011;7737;51.578;7.268;2023-04-25T11:50:39;2.47;;;0.77;;
15271;SDS011;7737;51.578;7.268;2023-04-25T11:53:05;4.18;;;0.95;;
15271;SDS011;7737;51.578;7.268;2023-04-25T11:55:34;1.92;;;0.80;;
15271;SDS011;7737;51.578;7.268;2023-04-25T11:58:02;1.70;;;0.60;;
15271;SDS011;7737;51.578;7.268;2023-04-25T12:00:30;2.80;;;0.90;;
15271;SDS011;7737;51.578;7.268;2023-04-25T12:02:57;1.08;;;0.65;;
15271;SDS011;7737;51.578;7.268;2023-04-25T12:05:25;2.25;;;0.75;;
15271;SDS011;7737;51.578;7.268;2023-04-25T12:07:55;3.03;;;0.80;;
15271;SDS011;7737;51.578;7.268;2023-04-25T12:10:23;2.60;;;0.90;;
15271;SDS011;7737;51.578;7.268;2023-04-25T12:12:52;5.18;;;1.45;;
15271;SDS011;7737;51.578;7.268;2023-04-25T12:15:22;5.72;;;2.60;;
15271;SDS011;7737;51.578;7.268;2023-04-25T12:17:51;2.42;;;0.90;;
15271;SDS011;7737;51.578;7.268;2023-04-25T12:20:19;2.55;;;1.10;;
15271;SDS011;7737;51.578;7.268;2023-04-25T12:22:49;2.33;;;0.88;;
15271;SDS011;7737;51.578;7.268;2023-04-25T12:28:10;4.63;;;1.13;;
15271;SDS011;7737;51.578;7.268;2023-04-25T12:30:51;3.20;;;0.70;;
15271;SDS011;7737;51.578;7.268;2023-04-25T12:33:20;3.17;;;0.80;;
15271;SDS011;7737;51.578;7.268;2023-04-25T12:35:47;2.28;;;0.80;;
15271;SDS011;7737;51.578;7.268;2023-04-25T12:38:20;3.65;;;1.10;;
15271;SDS011;7737;51.578;7.268;2023-04-25T12:40:47;5.22;;;1.38;;
15271;SDS011;7737;51.578;7.268;2023-04-25T12:43:15;4.60;;;1.00;;
15271;SDS011;7737;51.578;7.268;2023-04-25T12:45:41;4.78;;;0.80;;
15271;SDS011;7737;51.578;7.268;2023-04-25T12:48:08;3.67;;;0.82;;
15271;SDS011;7737;51.578;7.268;2023-04-25T12:50:35;2.80;;;0.90;;
15271;SDS011;7737;51.578;7.268;2023-04-25T12:53:01;3.90;;;0.77;;
15271;SDS011;7737;51.578;7.268;2023-04-25T12:55:28;2.90;;;0.95;;
15271;SDS011;7737;51.578;7.268;2023-04-25T12:57:54;4.18;;;1.25;;
15271;SDS011;7737;51.578;7.268;2023-04-25T13:00:22;4.25;;;1.00;;
15271;SDS011;7737;51.578;7.268;2023-04-25T13:02:49;2.72;;;0.82;;
15271;SDS011;7737;51.578;7.268;2023-04-25T13:05:16;3.05;;;0.88;;
15271;SDS011;7737;51.578;7.268;2023-04-25T13:07:42;3.30;;;0.98;;
15271;SDS011;7737;51.578;7.268;2023-04-25T13:10:09;3.80;;;1.00;;
15271;SDS011;7737;51.578;7.268;2023-04-25T13:12:37;4.63;;;1.15;;
15271;SDS011;7737;51.578;7.268;2023-04-25T13:15:03;2.90;;;1.80;;
15271;SDS011;7737;51.578;7.268;2023-04-25T13:17:33;3.53;;;1.20;;
15271;SDS011;7737;51.578;7.268;2023-04-25T13:19:59;3.75;;;0.93;;
15271;SDS011;7737;51.578;7.268;2023-04-25T13:22:26;3.65;;;0.90;;
15271;SDS011;7737;51.578;7.268;2023-04-25T13:24:52;2.90;;;0.88;;
15271;SDS011;7737;51.578;7.268;2023-04-25T13:27:19;3.42;;;0.95;;
15271;SDS011;7737;51.578;7.268;2023-04-25T13:29:46;2.67;;;0.98;;
15271;SDS011;7737;51.578;7.268;2023-04-25T13:32:13;5.50;;;1.30;;
15271;SDS011;7737;51.578;7.268;2023-04-25T13:34:41;3.80;;;1.10;;
15271;SDS011;7737;51.578;7.268;2023-04-25T13:37:07;2.95;;;1.10;;
15271;SDS011;7737;51.578;7.268;2023-04-25T13:39:34;4.47;;;1.08;;
15271;SDS011;7737;51.578;7.268;2023-04-25T13:42:01;2.85;;;1.00;;
15271;SDS011;7737;51.578;7.268;2023-04-25T13:44:28;3.08;;;1.17;;
15271;SDS011;7737;51.578;7.268;2023-04-25T13:46:55;3.47;;;1.08;;
15271;SDS011;7737;51.578;7.268;2023-04-25T13:49:22;4.10;;;1.00;;
15271;SDS011;7737;51.578;7.268;2023-04-25T13:51:50;4.57;;;1.50;;
15271;SDS011;7737;51.578;7.268;2023-04-25T13:54:16;4.50;;;1.52;;
15271;SDS011;7737;51.578;7.268;2023-04-25T13:56:43;4.65;;;1.08;;
15271;SDS011;7737;51.578;7.268;2023-04-25T13:59:10;2.55;;;1.17;;
15271;SDS011;7737;51.578;7.268;2023-04-25T14:01:37;3.78;;;1.17;;
15271;SDS011;7737;51.578;7.268;2023-04-25T14:04:03;3.85;;;1.25;;
15271;SDS011;7737;51.578;7.268;2023-04-25T14:06:30;4.80;;;1.60;;
15271;SDS011;7737;51.578;7.268;2023-04-25T14:08:59;6.47;;;1.15;;
15271;SDS011;7737;51.578;7.268;2023-04-25T14:11:26;5.65;;;1.25;;
15271;SDS011;7737;51.578;7.268;2023-04-25T14:13:53;3.53;;;0.90;;
15271;SDS011;7737;51.578;7.268;2023-04-25T14:16:19;3.42;;;1.00;;
15271;SDS011;7737;51.578;7.268;2023-04-25T14:18:46;5.03;;;1.20;;
15271;SDS011;7737;51.578;7.268;2023-04-25T14:21:13;3.17;;;0.90;;
15271;SDS011;7737;51.578;7.268;2023-04-25T14:23:39;2.72;;;0.75;;
15271;SDS011;7737;51.578;7.268;2023-04-25T14:26:07;3.05;;;1.08;;
15271;SDS011;7737;51.578;7.268;2023-04-25T14:28:37;2.03;;;0.82;;
15271;SDS011;7737;51.578;7.268;2023-04-25T14:31:03;1.10;;;0.70;;
15271;SDS011;7737;51.578;7.268;2023-04-25T14:33:30;3.58;;;1.00;;
15271;SDS011;7737;51.578;7.268;2023-04-25T14:35:56;2.67;;;0.88;;
15271;SDS011;7737;51.578;7.268;2023-04-25T14:38:23;2.17;;;0.95;;
15271;SDS011;7737;51.578;7.268;2023-04-25T14:40:50;2.13;;;0.60;;
15271;SDS011;7737;51.578;7.268;2023-04-25T14:43:20;2.42;;;0.90;;
15271;SDS011;7737;51.578;7.268;2023-04-25T14:45:46;5.53;;;0.95;;
15271;SDS011;7737;51.578;7.268;2023-04-25T14:48:13;3.03;;;0.93;;
15271;SDS011;7737;51.578;7.268;2023-04-25T14:50:40;2.80;;;1.00;;
15271;SDS011;7737;51.578;7.268;2023-04-25T14:53:06;3.53;;;1.38;;
15271;SDS011;7737;51.578;7.268;2023-04-25T14:55:33;4.47;;;1.25;;
15271;SDS011;7737;51.578;7.268;2023-04-25T14:58:00;3.35;;;1.30;;
15271;SDS011;7737;51.578;7.268;2023-04-25T15:00:28;5.47;;;1.20;;